createdAt,value
2022-12-08T00:04:50.342Z,2.4862340614548493
2022-12-08T00:11:18.374Z,2.496743049749164
2022-12-08T00:17:45.870Z,2.4130794053093645
2022-12-08T00:24:16.248Z,2.403076008570234
2022-12-08T00:30:43.857Z,2.4532647888795984
2022-12-08T00:37:10.372Z,2.3551199310200666
2022-12-08T00:58:24.878Z,2.3468867579431434
2022-12-08T01:07:30.313Z,2.471471310618729
2022-12-08T01:13:58.094Z,2.4684847930602007
2022-12-08T01:20:25.358Z,2.524364417851171
2022-12-08T01:27:25.417Z,2.672749007107024
2022-12-08T01:40:43.651Z,2.808190060618729
2022-12-08T01:47:10.257Z,2.8472701975334447
2022-12-08T01:53:38.443Z,2.8999902017140466
2022-12-08T02:00:08.264Z,2.9294458089464883
2022-12-08T02:07:41.983Z,2.997824127299331
2022-12-08T02:14:34.464Z,2.999295176630435
2022-12-08T02:26:51.401Z,3.0125326609531773
2022-12-08T02:33:19.086Z,2.9078157660953172
2022-12-08T02:39:46.794Z,2.959255460911371
2022-12-08T02:50:53.271Z,3.049871969063545
2022-12-08T02:57:20.446Z,3.073101745401338
2022-12-08T03:03:48.572Z,3.1369166753762543
2022-12-08T03:10:16.315Z,3.1623745819397997
2022-12-08T03:18:55.359Z,3.1694861778846155
2022-12-08T03:25:24.346Z,3.165122674540134
2022-12-08T03:31:52.768Z,3.111801055602007
2022-12-08T03:38:20.475Z,3.1903271321070235
2022-12-08T03:50:29.342Z,3.0295143969481604
2022-12-08T03:56:57.053Z,3.075927571070234
2022-12-08T04:06:34.195Z,3.0015376776755853
2022-12-08T04:13:01.775Z,3.0156125888377927
2022-12-08T04:19:28.983Z,3.0973368258779264
2022-12-08T04:25:57.358Z,3.0437493467809364
2022-12-08T04:38:29.951Z,2.940015546613713
2022-12-08T04:51:00.619Z,3.0144191576086956
2022-12-08T04:57:28.290Z,3.0064779734531775
2022-12-08T05:03:55.919Z,3.1160600438963213
2022-12-08T05:16:11.451Z,3.042560488085284
2022-12-08T05:26:05.303Z,3.135556673285953
2022-12-08T05:32:33.634Z,3.0588537311872903
2022-12-08T05:39:00.152Z,3.0553825250836124
2022-12-08T05:45:26.999Z,3.1278591398411377
2022-12-08T05:51:54.129Z,3.187569241220736
2022-12-08T05:58:20.509Z,3.1254258988294317
2022-12-08T06:06:15.081Z,3.1178563963210704
2022-12-08T06:17:51.375Z,3.2106500836120406
2022-12-08T06:28:01.248Z,3.1582684469063547
2022-12-08T06:34:28.520Z,3.1271144701086953
2022-12-08T06:47:08.036Z,3.1590255278010035
2022-12-08T06:53:35.603Z,3.1471905048076922
2022-12-08T07:02:47.517Z,3.073664820234114
2022-12-08T07:09:14.785Z,2.7625881845735782
2022-12-08T07:15:42.071Z,2.826319502508361
2022-12-08T07:27:19.868Z,2.9149763534699
2022-12-08T07:33:47.147Z,2.964375391931438
2022-12-08T07:40:14.389Z,2.9952184364548495
2022-12-08T07:46:43.157Z,2.86326100020903
2022-12-08T08:01:30.204Z,2.81352816680602
2022-12-08T08:07:58.906Z,2.7781720317725758
2022-12-08T08:20:58.108Z,2.7279558162625417
2022-12-08T08:27:26.667Z,2.787510451505017
2022-12-08T08:33:55.698Z,2.779281197742475
2022-12-08T08:49:53.711Z,2.765127900292642
2022-12-08T08:56:23.716Z,2.8173860785953178
2022-12-08T09:02:56.431Z,2.954999085493311
2022-12-08T09:11:16.437Z,3.1191889632107026
2022-12-08T09:18:14.796Z,3.0614731396321075
2022-12-08T09:24:45.336Z,3.1410940112876253
2022-12-08T09:36:12.425Z,3.097664088628762
2022-12-08T09:42:42.607Z,3.137682248118729
2022-12-08T09:49:11.341Z,3.090988843018395
2022-12-08T09:55:40.227Z,3.065962714255853
2022-12-08T10:02:10.768Z,3.1713360942725752
2022-12-08T10:08:39.578Z,3.413767244983277
2022-12-08T10:15:09.507Z,3.2910600438963216
2022-12-08T10:21:38.685Z,3.262411815426421
2022-12-08T10:28:08.458Z,3.540253971571906
2022-12-08T10:45:32.330Z,3.7926911318979935
2022-12-08T10:53:55.382Z,3.6260817307692297
2022-12-08T11:00:24.043Z,3.784616691053513
2022-12-08T11:06:53.944Z,3.9887189067725752
2022-12-08T11:13:22.196Z,3.75457318666388
2022-12-08T11:21:50.075Z,3.662425533026756
2022-12-08T11:28:19.067Z,3.6594664506688956
2022-12-08T11:34:47.374Z,3.8013149299749163
2022-12-08T11:41:16.632Z,3.7417237144648827
2022-12-08T11:57:33.620Z,3.868674879807692
2022-12-08T12:06:46.435Z,4.102747439381271
2022-12-08T12:13:23.076Z,4.108817150919733
2022-12-08T12:24:12.233Z,3.8416727633779266
2022-12-08T12:31:42.550Z,3.9010438440635453
2022-12-08T12:38:12.745Z,3.9421959918478264
2022-12-08T12:44:42.763Z,3.8431470788043476
2022-12-08T12:51:11.573Z,3.719401259406354
2022-12-08T12:57:40.114Z,3.74028793896321
2022-12-08T13:04:08.423Z,3.65875966764214
2022-12-08T13:10:37.811Z,3.6552466555183942
2022-12-08T13:25:26.877Z,3.544354227633779
2022-12-08T13:35:38.730Z,3.421954039506689
2022-12-08T13:42:29.679Z,3.5337505225752506
2022-12-08T13:57:01.261Z,3.4430595474498324
2022-12-08T14:03:35.129Z,3.616659698996655
2022-12-08T14:10:03.694Z,3.800103861831104
2022-12-08T14:16:32.522Z,4.011838942307692
2022-12-08T14:23:02.191Z,4.389470108695653
2022-12-08T14:29:30.460Z,4.563053276546823
2022-12-08T14:36:14.070Z,4.21156393708194
2022-12-08T14:42:42.967Z,4.05389318561873
2022-12-08T14:49:10.992Z,4.06605808423913
2022-12-08T14:58:16.646Z,3.59333912520903
2022-12-08T15:04:44.361Z,3.475411528010033
2022-12-08T15:11:11.942Z,3.336946723453177
2022-12-08T15:17:40.006Z,3.2450257368311037
2022-12-08T15:24:08.056Z,3.1344305236204013
2022-12-08T15:31:00.290Z,2.9431268290133783
2022-12-08T15:37:28.758Z,2.799058058110368
2022-12-08T15:43:56.705Z,2.683276285535117
2022-12-08T15:50:25.167Z,2.573559651964883
2022-12-08T16:01:13.592Z,2.390432953595318
2022-12-08T16:07:41.894Z,2.3166655779682275
2022-12-08T16:14:47.426Z,2.2248295098244153
2022-12-08T16:22:30.388Z,2.165058005852843
2022-12-08T16:29:19.874Z,2.082612614966555
2022-12-08T16:36:45.737Z,2.0206619721989965
2022-12-08T16:43:36.658Z,2.0691197219899666
2022-12-08T16:50:26.345Z,1.9524162573160535
2022-12-08T16:57:32.762Z,1.8993115071070232
2022-12-08T17:04:29.739Z,1.7978646268812708
2022-12-08T17:10:59.276Z,1.7770948735367895
2022-12-08T17:17:27.667Z,1.8845814172240802
2022-12-08T17:26:18.909Z,2.188362902382943
2022-12-08T17:32:48.387Z,2.2047221206103678
2022-12-08T17:39:19.017Z,2.2973596885451504
2022-12-08T17:45:49.141Z,2.2739829379180603
2022-12-08T17:52:17.588Z,2.3017323369565217
2022-12-08T17:58:48.674Z,2.376611491429766
2022-12-08T18:06:43.790Z,2.2757061298076926
2022-12-08T18:13:12.418Z,2.3690837949414716
2022-12-08T18:19:41.419Z,2.2255147366220736
2022-12-08T18:26:11.048Z,2.1244166753762537
2022-12-08T18:38:50.992Z,2.0175206417224083
2022-12-08T18:45:22.221Z,1.8607408810618729
2022-12-08T18:54:16.861Z,1.7957619147157193
2022-12-08T19:00:45.618Z,1.7884569659280936
2022-12-08T19:07:13.776Z,1.683711329431438
2022-12-08T19:19:14.387Z,1.5247792119565218
2022-12-08T19:25:44.996Z,1.4589177466555183
2022-12-08T19:32:14.620Z,1.4313551682692307
2022-12-08T19:38:44.396Z,1.4582828177257525
2022-12-08T19:48:09.520Z,1.463102921195652
2022-12-08T19:54:38.329Z,1.4674827550167224
2022-12-08T20:11:46.706Z,1.4934723818979931
2022-12-08T20:21:54.714Z,1.6371335441053512
2022-12-08T20:28:22.951Z,1.690267035953177
2022-12-08T20:41:41.958Z,1.8919105351170569
2022-12-08T20:48:09.054Z,1.9317758413461539
2022-12-08T20:54:36.000Z,1.9979436663879595
2022-12-08T21:07:06.408Z,2.1213400135869565
2022-12-08T21:13:35.444Z,2.078377795777592
2022-12-08T21:22:18.491Z,2.1234655884197324
2022-12-08T21:28:48.273Z,2.0751032086120405
2022-12-08T21:35:17.324Z,2.0549370296822738
2022-12-08T21:41:47.380Z,2.1565935932274245
2022-12-08T21:48:18.660Z,2.1646882838628767
2022-12-08T21:54:52.735Z,2.1591816471571907
2022-12-08T22:01:22.292Z,2.089465536162207
2022-12-08T22:07:54.184Z,1.9514292433110365
2022-12-08T22:14:25.337Z,2.085397287834448
2022-12-08T22:20:57.515Z,2.095204065635451
2022-12-08T22:29:05.986Z,1.930308058110368
2022-12-08T22:35:36.290Z,1.866015625
2022-12-08T22:42:23.438Z,1.7683926891722406
2022-12-08T22:48:53.737Z,1.698327105978261
2022-12-08T22:55:25.145Z,1.6658771425585284
2022-12-08T23:01:56.029Z,1.748743206521739
2022-12-08T23:08:26.839Z,1.8658425219481605
2022-12-08T23:14:56.505Z,1.8950975909280938
2022-12-08T23:23:44.457Z,1.9533457880434786
2022-12-08T23:31:31.895Z,2.026128109322743
2022-12-08T23:38:00.857Z,2.0454353051839465
2022-12-08T23:44:29.152Z,2.00343266617893
2022-12-08T23:54:26.215Z,2.0545072115384615
